AU-0114 weather

Denman Farm Strip
Denman, New South Wales, Australia

Public forecast

Using degrees Celsius for public forecast. Weather courtesy of forecast.io.

METAR (pilot weather report)

Closest report is Mudgee Airport, 56.0 nm (103.7 km) WSW. Retrieved 2019/07/19 15:00 UTC (45 minutes ago):

YMDG 191500Z AUTO 04004KT 9999 // NCD M00/M01 Q1023

TAF (pilot weather forecast)

Closest forecast is Newcastle Airport, 62.8 nm (116.3 km) ESE. Retrieved 2019/07/19 12:36 UTC (3 hours ago):

TAF YWLM 191128Z 1912/2012 30006KT CAVOK FM200100 02012KT CAVOK